AFL5761 URSS-ULLI
Flight info
| Callsign | AFL5761 |
|---|---|
| Flight time | N/A |
| Altitude | 34000 |
| Route | ADNET1D ADNET W79 AMEPU A100 KL L91 KANON T748 PEPOR T611 TUKMO N50 NUDKO T561 ODATI T875 GENPA GENPA1B |
| Aircraft | B738/M-SDE2E3FGHIRWXY/LB1 |
Departure
| Time | N/A |
|---|---|
| Airport | Sochi International Airport (URSS) |
Arrival
| Time | 2026-05-06 07:39 |
|---|---|
| Airport | Pulkovo Airport (ULLI) |
| Time | Latitude | Longitude | Altitude | Speed | Heading |
|---|---|---|---|---|---|
| 2026-05-06 06:54 | 56.66384 | 35.29124 | 33834 ft | 429 kts | 317° |
| 2026-05-06 06:54 | 56.70912 | 35.22832 | 33848 ft | 430 kts | 317° |
| 2026-05-06 06:55 | 56.75672 | 35.16218 | 33839 ft | 430 kts | 316° |
| 2026-05-06 06:55 | 56.80426 | 35.09581 | 33845 ft | 431 kts | 316° |
| 2026-05-06 06:56 | 56.85184 | 35.02916 | 33843 ft | 430 kts | 316° |
| 2026-05-06 06:56 | 56.89936 | 34.96243 | 33842 ft | 431 kts | 316° |
| 2026-05-06 06:57 | 56.94850 | 34.89924 | 33848 ft | 434 kts | 321° |
| 2026-05-06 06:57 | 56.99943 | 34.83924 | 33846 ft | 435 kts | 321° |
| 2026-05-06 06:58 | 57.05042 | 34.77909 | 33841 ft | 435 kts | 321° |
| 2026-05-06 06:58 | 57.10099 | 34.71867 | 33839 ft | 436 kts | 321° |
| 2026-05-06 06:59 | 57.15175 | 34.65752 | 33846 ft | 436 kts | 321° |
| 2026-05-06 06:59 | 57.20230 | 34.59619 | 33834 ft | 433 kts | 320° |
| 2026-05-06 07:00 | 57.25270 | 34.53494 | 33835 ft | 433 kts | 320° |
| 2026-05-06 07:00 | 57.30309 | 34.47362 | 33828 ft | 433 kts | 320° |
| 2026-05-06 07:01 | 57.35335 | 34.41216 | 33834 ft | 433 kts | 320° |
| 2026-05-06 07:01 | 57.40358 | 34.35052 | 33829 ft | 433 kts | 320° |
| 2026-05-06 07:02 | 57.45368 | 34.28879 | 33822 ft | 432 kts | 320° |
| 2026-05-06 07:02 | 57.50347 | 34.22730 | 33829 ft | 432 kts | 320° |
| 2026-05-06 07:03 | 57.55349 | 34.16542 | 33832 ft | 432 kts | 320° |
| 2026-05-06 07:03 | 57.60367 | 34.10301 | 33842 ft | 434 kts | 320° |
| 2026-05-06 07:04 | 57.65407 | 34.04014 | 33858 ft | 436 kts | 320° |
| 2026-05-06 07:04 | 57.70462 | 33.97683 | 33866 ft | 438 kts | 320° |
| 2026-05-06 07:05 | 57.75533 | 33.91319 | 33879 ft | 439 kts | 320° |
| 2026-05-06 07:05 | 57.80603 | 33.84921 | 33876 ft | 439 kts | 320° |
| 2026-05-06 07:06 | 57.85670 | 33.78518 | 33873 ft | 438 kts | 320° |
| 2026-05-06 07:06 | 57.90550 | 33.71733 | 33872 ft | 434 kts | 315° |
| 2026-05-06 07:07 | 57.95201 | 33.64553 | 33864 ft | 432 kts | 314° |
| 2026-05-06 07:07 | 57.99845 | 33.57361 | 33872 ft | 432 kts | 315° |
| 2026-05-06 07:08 | 58.04506 | 33.50217 | 33871 ft | 431 kts | 315° |
| 2026-05-06 07:08 | 58.06843 | 33.46636 | 33598 ft | 434 kts | 315° |
| 2026-05-06 07:08 | 58.09172 | 33.43065 | 33250 ft | 428 kts | 315° |
| 2026-05-06 07:08 | 58.11476 | 33.39529 | 32816 ft | 424 kts | 314° |
| 2026-05-06 07:09 | 58.13720 | 33.36075 | 32404 ft | 419 kts | 314° |
| 2026-05-06 07:09 | 58.15969 | 33.32606 | 31971 ft | 415 kts | 314° |
| 2026-05-06 07:09 | 58.18194 | 33.29172 | 31559 ft | 410 kts | 314° |
| 2026-05-06 07:09 | 58.20389 | 33.25778 | 31252 ft | 404 kts | 314° |
| 2026-05-06 07:10 | 58.22560 | 33.22416 | 30830 ft | 401 kts | 314° |
| 2026-05-06 07:10 | 58.24707 | 33.19086 | 30431 ft | 397 kts | 314° |
| 2026-05-06 07:10 | 58.26835 | 33.15784 | 30034 ft | 394 kts | 313° |
| 2026-05-06 07:10 | 58.28948 | 33.12495 | 29623 ft | 390 kts | 313° |
| 2026-05-06 07:11 | 58.31032 | 33.09242 | 29203 ft | 386 kts | 313° |
| 2026-05-06 07:11 | 58.33103 | 33.06008 | 28794 ft | 383 kts | 313° |
| 2026-05-06 07:11 | 58.35152 | 33.02804 | 28380 ft | 380 kts | 313° |
| 2026-05-06 07:11 | 58.37186 | 32.99618 | 27968 ft | 377 kts | 313° |
| 2026-05-06 07:12 | 58.39202 | 32.96456 | 27567 ft | 374 kts | 313° |
| 2026-05-06 07:12 | 58.41200 | 32.93317 | 27167 ft | 371 kts | 313° |
| 2026-05-06 07:12 | 58.43181 | 32.90204 | 26764 ft | 368 kts | 313° |
| 2026-05-06 07:12 | 58.45148 | 32.87103 | 26389 ft | 364 kts | 313° |
| 2026-05-06 07:13 | 58.46437 | 32.85067 | 26147 ft | 362 kts | 313° |
| 2026-05-06 07:13 | 58.49019 | 32.80976 | 25619 ft | 358 kts | 312° |
| 2026-05-06 07:13 | 58.50284 | 32.78968 | 25350 ft | 357 kts | 312° |
| 2026-05-06 07:13 | 58.52832 | 32.74918 | 24839 ft | 354 kts | 312° |
| 2026-05-06 07:14 | 58.54086 | 32.72924 | 24580 ft | 353 kts | 312° |
| 2026-05-06 07:14 | 58.55966 | 32.69931 | 24197 ft | 350 kts | 312° |
| 2026-05-06 07:14 | 58.57831 | 32.66957 | 23809 ft | 348 kts | 312° |
| 2026-05-06 07:14 | 58.59686 | 32.63994 | 23430 ft | 346 kts | 312° |
| 2026-05-06 07:15 | 58.61524 | 32.61051 | 23052 ft | 343 kts | 312° |
| 2026-05-06 07:15 | 58.63346 | 32.58129 | 22676 ft | 340 kts | 312° |
| 2026-05-06 07:15 | 58.65156 | 32.55225 | 22303 ft | 338 kts | 312° |
| 2026-05-06 07:15 | 58.66954 | 32.52336 | 21933 ft | 336 kts | 312° |
| 2026-05-06 07:16 | 58.68743 | 32.49459 | 21561 ft | 334 kts | 311° |
| 2026-05-06 07:16 | 58.70521 | 32.46597 | 21196 ft | 331 kts | 312° |
| 2026-05-06 07:16 | 58.72286 | 32.43748 | 20824 ft | 330 kts | 311° |
| 2026-05-06 07:16 | 58.74012 | 32.40959 | 20478 ft | 328 kts | 311° |
| 2026-05-06 07:17 | 58.75754 | 32.38143 | 20116 ft | 325 kts | 311° |
| 2026-05-06 07:17 | 58.77477 | 32.35361 | 19801 ft | 322 kts | 311° |
| 2026-05-06 07:17 | 58.79191 | 32.32595 | 19440 ft | 320 kts | 311° |
| 2026-05-06 07:17 | 58.80888 | 32.29854 | 19091 ft | 317 kts | 311° |
| 2026-05-06 07:18 | 58.82575 | 32.27125 | 18742 ft | 315 kts | 311° |
| 2026-05-06 07:18 | 58.84253 | 32.24407 | 18393 ft | 313 kts | 311° |
| 2026-05-06 07:18 | 58.85919 | 32.21703 | 18045 ft | 311 kts | 311° |
| 2026-05-06 07:18 | 58.87566 | 32.19021 | 17705 ft | 308 kts | 311° |
| 2026-05-06 07:19 | 58.89196 | 32.16368 | 17353 ft | 306 kts | 311° |
| 2026-05-06 07:19 | 58.90818 | 32.13727 | 17017 ft | 304 kts | 311° |
| 2026-05-06 07:19 | 58.92427 | 32.11102 | 16680 ft | 303 kts | 311° |
| 2026-05-06 07:19 | 58.94030 | 32.08481 | 16342 ft | 301 kts | 311° |
| 2026-05-06 07:20 | 58.95625 | 32.05862 | 16001 ft | 299 kts | 311° |
| 2026-05-06 07:20 | 58.97211 | 32.03266 | 15666 ft | 298 kts | 311° |
| 2026-05-06 07:20 | 58.98766 | 32.00718 | 15339 ft | 296 kts | 311° |
| 2026-05-06 07:20 | 59.00332 | 31.98148 | 15006 ft | 294 kts | 311° |
| 2026-05-06 07:21 | 59.01888 | 31.95589 | 14679 ft | 292 kts | 311° |
| 2026-05-06 07:21 | 59.03451 | 31.93020 | 14344 ft | 288 kts | 311° |
| 2026-05-06 07:21 | 59.04961 | 31.90534 | 14023 ft | 288 kts | 311° |
| 2026-05-06 07:21 | 59.06484 | 31.88021 | 13700 ft | 286 kts | 311° |
| 2026-05-06 07:22 | 59.07995 | 31.85521 | 13372 ft | 285 kts | 311° |
| 2026-05-06 07:22 | 59.09497 | 31.83037 | 13054 ft | 283 kts | 310° |
| 2026-05-06 07:22 | 59.10979 | 31.80545 | 12736 ft | 280 kts | 309° |
| 2026-05-06 07:22 | 59.12385 | 31.77947 | 12400 ft | 278 kts | 307° |
| 2026-05-06 07:23 | 59.13765 | 31.75326 | 12101 ft | 275 kts | 307° |
| 2026-05-06 07:23 | 59.15121 | 31.72727 | 11784 ft | 273 kts | 307° |
| 2026-05-06 07:23 | 59.16486 | 31.70110 | 11462 ft | 277 kts | 308° |
| 2026-05-06 07:23 | 59.17868 | 31.67465 | 11152 ft | 281 kts | 309° |
| 2026-05-06 07:24 | 59.19278 | 31.64783 | 10823 ft | 286 kts | 309° |
| 2026-05-06 07:24 | 59.20720 | 31.62037 | 10480 ft | 291 kts | 310° |
| 2026-05-06 07:24 | 59.22148 | 31.59324 | 10303 ft | 282 kts | 310° |
| 2026-05-06 07:24 | 59.23530 | 31.56699 | 10162 ft | 272 kts | 311° |
| 2026-05-06 07:25 | 59.24859 | 31.54167 | 10032 ft | 261 kts | 311° |
| 2026-05-06 07:25 | 59.26144 | 31.51726 | 9922 ft | 253 kts | 311° |
| 2026-05-06 07:25 | 59.27389 | 31.49335 | 9699 ft | 250 kts | 311° |
| 2026-05-06 07:25 | 59.28632 | 31.46949 | 9419 ft | 250 kts | 312° |
| 2026-05-06 07:26 | 59.29874 | 31.44553 | 9144 ft | 251 kts | 312° |
| 2026-05-06 07:26 | 59.31127 | 31.42162 | 8869 ft | 251 kts | 313° |
| 2026-05-06 07:26 | 59.32368 | 31.39784 | 8596 ft | 248 kts | 313° |
| 2026-05-06 07:26 | 59.33590 | 31.37405 | 8326 ft | 246 kts | 313° |
| 2026-05-06 07:27 | 59.34803 | 31.35056 | 8062 ft | 245 kts | 313° |
| 2026-05-06 07:27 | 59.36018 | 31.32719 | 7779 ft | 245 kts | 313° |
| 2026-05-06 07:27 | 59.37232 | 31.30379 | 7538 ft | 243 kts | 313° |
| 2026-05-06 07:27 | 59.38434 | 31.28047 | 7280 ft | 243 kts | 314° |
| 2026-05-06 07:28 | 59.39647 | 31.25696 | 7019 ft | 245 kts | 313° |
| 2026-05-06 07:28 | 59.40849 | 31.23370 | 6761 ft | 245 kts | 314° |
| 2026-05-06 07:28 | 59.43274 | 31.18670 | 6212 ft | 242 kts | 313° |
| 2026-05-06 07:29 | 59.44458 | 31.16358 | 5952 ft | 240 kts | 313° |
| 2026-05-06 07:29 | 59.45629 | 31.14086 | 5696 ft | 239 kts | 313° |
| 2026-05-06 07:29 | 59.46809 | 31.11792 | 5408 ft | 238 kts | 313° |
| 2026-05-06 07:29 | 59.48006 | 31.09448 | 4958 ft | 246 kts | 314° |
| 2026-05-06 07:30 | 59.49228 | 31.07040 | 4522 ft | 251 kts | 314° |
| 2026-05-06 07:30 | 59.50485 | 31.04564 | 4075 ft | 258 kts | 313° |
| 2026-05-06 07:30 | 59.51748 | 31.02042 | 3620 ft | 261 kts | 313° |
| 2026-05-06 07:30 | 59.53038 | 30.99482 | 3179 ft | 266 kts | 314° |
| 2026-05-06 07:31 | 59.54344 | 30.96877 | 2739 ft | 269 kts | 314° |
| 2026-05-06 07:31 | 59.55648 | 30.94268 | 2548 ft | 262 kts | 314° |
| 2026-05-06 07:31 | 59.56836 | 30.91658 | 2499 ft | 250 kts | 306° |
| 2026-05-06 07:31 | 59.57825 | 30.88949 | 2488 ft | 238 kts | 305° |
| 2026-05-06 07:32 | 59.58799 | 30.86333 | 2497 ft | 236 kts | 306° |
| 2026-05-06 07:32 | 59.59801 | 30.83771 | 2515 ft | 235 kts | 307° |
| 2026-05-06 07:32 | 59.60838 | 30.81242 | 2505 ft | 237 kts | 309° |
| 2026-05-06 07:32 | 59.61890 | 30.78772 | 2503 ft | 239 kts | 309° |
| 2026-05-06 07:33 | 59.62974 | 30.76276 | 2517 ft | 238 kts | 310° |
| 2026-05-06 07:33 | 59.64057 | 30.73807 | 2504 ft | 237 kts | 310° |
| 2026-05-06 07:33 | 59.65136 | 30.71358 | 2490 ft | 235 kts | 310° |
| 2026-05-06 07:33 | 59.66202 | 30.68941 | 2497 ft | 233 kts | 310° |
| 2026-05-06 07:34 | 59.67359 | 30.66722 | 2506 ft | 233 kts | 322° |
| 2026-05-06 07:34 | 59.68699 | 30.64884 | 2511 ft | 235 kts | 324° |
| 2026-05-06 07:34 | 59.70043 | 30.63091 | 2492 ft | 230 kts | 324° |
| 2026-05-06 07:34 | 59.71336 | 30.61340 | 2489 ft | 220 kts | 323° |
| 2026-05-06 07:35 | 59.72562 | 30.59649 | 2483 ft | 210 kts | 323° |
| 2026-05-06 07:35 | 59.73748 | 30.57993 | 2485 ft | 208 kts | 321° |
| 2026-05-06 07:35 | 59.74653 | 30.55855 | 2494 ft | 203 kts | 291° |
| 2026-05-06 07:35 | 59.75171 | 30.53289 | 2509 ft | 198 kts | 293° |
| 2026-05-06 07:36 | 59.75679 | 30.50830 | 2366 ft | 188 kts | 289° |
| 2026-05-06 07:36 | 59.76073 | 30.48427 | 2146 ft | 179 kts | 286° |
| 2026-05-06 07:36 | 59.76418 | 30.46102 | 1922 ft | 170 kts | 285° |
| 2026-05-06 07:36 | 59.76747 | 30.43894 | 1701 ft | 165 kts | 285° |
| 2026-05-06 07:37 | 59.77059 | 30.41720 | 1484 ft | 164 kts | 285° |
| 2026-05-06 07:37 | 59.77376 | 30.39547 | 1290 ft | 160 kts | 286° |
| 2026-05-06 07:37 | 59.77673 | 30.37531 | 1071 ft | 147 kts | 285° |
| 2026-05-06 07:37 | 59.77959 | 30.35576 | 841 ft | 142 kts | 287° |
| 2026-05-06 07:38 | 59.78245 | 30.33715 | 675 ft | 142 kts | 285° |
| 2026-05-06 07:38 | 59.78510 | 30.31834 | 489 ft | 145 kts | 285° |
| 2026-05-06 07:38 | 59.78790 | 30.29923 | 285 ft | 144 kts | 286° |
| 2026-05-06 07:38 | 59.79069 | 30.28008 | 100 ft | 144 kts | 286° |
| 2026-05-06 07:39 | 59.79329 | 30.26274 | 84 ft | 112 kts | 287° |
| 2026-05-06 07:39 | 59.79506 | 30.25079 | 82 ft | 67 kts | 287° |
| 2026-05-06 07:39 | 59.79609 | 30.24397 | 85 ft | 47 kts | 287° |
| 2026-05-06 07:39 | 59.79698 | 30.23802 | 80 ft | 40 kts | 287° |
| 2026-05-06 07:40 | 59.79776 | 30.23349 | 80 ft | 29 kts | 300° |
| 2026-05-06 07:40 | 59.79875 | 30.23101 | 79 ft | 13 kts | 315° |
| 2026-05-06 07:40 | 59.79957 | 30.23040 | 75 ft | 13 kts | 22° |
| 2026-05-06 07:40 | 59.79978 | 30.23118 | 73 ft | 5 kts | 99° |
| 2026-05-06 07:41 | 59.79963 | 30.23238 | 78 ft | 13 kts | 106° |
| 2026-05-06 07:41 | 59.79928 | 30.23464 | 73 ft | 21 kts | 107° |
| 2026-05-06 07:41 | 59.79882 | 30.23764 | 82 ft | 24 kts | 107° |
| 2026-05-06 07:41 | 59.79835 | 30.24077 | 79 ft | 23 kts | 106° |
| 2026-05-06 07:42 | 59.79791 | 30.24375 | 83 ft | 22 kts | 107° |
| 2026-05-06 07:42 | 59.79746 | 30.24673 | 84 ft | 23 kts | 106° |
| 2026-05-06 07:42 | 59.79705 | 30.24952 | 84 ft | 19 kts | 106° |
| 2026-05-06 07:42 | 59.79670 | 30.25192 | 81 ft | 18 kts | 107° |
| 2026-05-06 07:43 | 59.79633 | 30.25439 | 82 ft | 20 kts | 106° |
| 2026-05-06 07:43 | 59.79595 | 30.25700 | 86 ft | 19 kts | 107° |
| 2026-05-06 07:43 | 59.79558 | 30.25944 | 84 ft | 17 kts | 107° |
| 2026-05-06 07:43 | 59.79525 | 30.26159 | 85 ft | 15 kts | 106° |
| 2026-05-06 07:44 | 59.79522 | 30.26293 | 82 ft | 9 kts | 53° |
| 2026-05-06 07:44 | 59.79588 | 30.26344 | 84 ft | 12 kts | 16° |
| 2026-05-06 07:44 | 59.79658 | 30.26406 | 84 ft | 10 kts | 48° |
| 2026-05-06 07:44 | 59.79671 | 30.26526 | 80 ft | 2 kts | 103° |
| 2026-05-06 07:45 | 59.79666 | 30.26564 | 84 ft | 3 kts | 105° |